createdAt,value
2023-10-07T00:01:35.232Z,11.47
2023-10-07T00:04:40.076Z,11.47
2023-10-07T00:07:45.410Z,11.47
2023-10-07T00:10:51.186Z,11.47
2023-10-07T00:13:57.155Z,11.46
2023-10-07T00:17:07.198Z,11.44
2023-10-07T00:20:12.343Z,11.42
2023-10-07T00:23:22.007Z,11.39
2023-10-07T00:26:27.936Z,11.35
2023-10-07T00:29:41.214Z,11.31
2023-10-07T00:32:46.714Z,11.27
2023-10-07T00:35:51.483Z,11.21
2023-10-07T00:38:55.699Z,11.15
2023-10-07T00:42:00.446Z,11.11
2023-10-07T00:45:14.702Z,11.09
2023-10-07T00:48:18.653Z,11.07
2023-10-07T00:51:34.768Z,11.05
2023-10-07T00:54:51.020Z,11.02
2023-10-07T00:58:05.773Z,11.01
2023-10-07T01:01:11.232Z,11.01
2023-10-07T01:04:17.407Z,10.99
2023-10-07T01:07:21.605Z,10.97
2023-10-07T01:10:29.236Z,10.98
2023-10-07T01:13:34.316Z,11.01
2023-10-07T01:16:45.403Z,11.02
2023-10-07T01:19:54.659Z,11.03
2023-10-07T01:23:05.629Z,11.05
2023-10-07T01:26:17.099Z,11.07
2023-10-07T01:29:22.247Z,11.08
2023-10-07T01:32:33.053Z,11.09
2023-10-07T01:35:40.860Z,11.10
2023-10-07T01:38:46.322Z,11.10
2023-10-07T01:41:50.820Z,11.10
2023-10-07T01:44:59.023Z,11.10
2023-10-07T01:48:08.704Z,11.10
2023-10-07T01:51:15.965Z,11.09
2023-10-07T01:54:21.192Z,11.06
2023-10-07T01:57:25.137Z,11.02
2023-10-07T02:00:44.858Z,10.99
2023-10-07T02:03:48.995Z,10.99
2023-10-07T02:06:53.402Z,10.97
2023-10-07T02:09:59.280Z,10.97
2023-10-07T02:13:03.866Z,10.96
2023-10-07T02:16:09.365Z,10.96
2023-10-07T02:19:16.217Z,10.99
2023-10-07T02:22:23.845Z,11.01
2023-10-07T02:25:30.778Z,11.03
2023-10-07T02:28:35.685Z,11.07
2023-10-07T02:31:44.854Z,11.09
2023-10-07T02:34:57.577Z,11.11
2023-10-07T02:38:04.770Z,11.13
2023-10-07T02:41:17.943Z,11.16
2023-10-07T02:44:28.913Z,11.20
2023-10-07T02:47:33.858Z,11.23
2023-10-07T02:50:41.045Z,11.27
2023-10-07T02:53:44.989Z,11.31
2023-10-07T02:56:56.044Z,11.34
2023-10-07T03:00:15.210Z,11.36
2023-10-07T03:03:34.517Z,11.38
2023-10-07T03:06:39.159Z,11.39
2023-10-07T03:09:53.023Z,11.40
2023-10-07T03:12:59.004Z,11.41
2023-10-07T03:16:29.272Z,11.41
2023-10-07T03:19:49.208Z,11.40
2023-10-07T03:23:11.683Z,11.41
2023-10-07T03:26:18.740Z,11.42
2023-10-07T03:29:32.246Z,11.44
2023-10-07T03:32:55.937Z,11.45
2023-10-07T03:36:15.737Z,11.44
2023-10-07T03:39:27.561Z,11.44
2023-10-07T03:42:31.844Z,11.45
2023-10-07T03:45:37.406Z,11.50
2023-10-07T03:48:42.274Z,11.55
2023-10-07T03:51:49.373Z,11.60
2023-10-07T03:54:55.202Z,11.64
2023-10-07T03:57:59.143Z,11.69
2023-10-07T04:01:13.098Z,11.70
2023-10-07T04:04:17.361Z,11.73
2023-10-07T04:07:21.321Z,11.76
2023-10-07T04:10:32.897Z,11.80
2023-10-07T04:13:38.116Z,11.84
2023-10-07T04:16:43.769Z,11.88
2023-10-07T04:19:54.096Z,11.91
2023-10-07T04:23:02.285Z,11.95
2023-10-07T04:26:12.940Z,12.04
2023-10-07T04:29:17.201Z,12.16
2023-10-07T04:32:23.571Z,12.31
2023-10-07T04:35:32.259Z,12.43
2023-10-07T04:38:53.934Z,12.57
2023-10-07T04:42:00.720Z,12.62
2023-10-07T04:45:22.521Z,12.68
2023-10-07T04:48:32.965Z,12.74
2023-10-07T04:51:49.226Z,12.76
2023-10-07T04:54:54.126Z,12.79
2023-10-07T04:58:01.009Z,12.83
2023-10-07T05:01:23.600Z,12.85
2023-10-07T05:04:29.755Z,12.88
2023-10-07T05:07:33.723Z,12.90
2023-10-07T05:10:40.037Z,12.91
2023-10-07T05:13:46.146Z,12.91
2023-10-07T05:16:50.562Z,12.90
2023-10-07T05:19:54.693Z,12.89
2023-10-07T05:23:01.893Z,12.89
2023-10-07T05:26:10.465Z,12.90
2023-10-07T05:29:16.309Z,12.90
2023-10-07T05:32:20.391Z,12.91
2023-10-07T05:35:24.636Z,12.92
2023-10-07T05:38:28.714Z,12.93
2023-10-07T05:41:33.476Z,12.94
2023-10-07T05:44:39.144Z,12.95
2023-10-07T05:47:46.507Z,12.96
2023-10-07T05:50:50.507Z,12.97
2023-10-07T05:53:54.496Z,13.01
2023-10-07T05:57:01.927Z,13.04
2023-10-07T06:00:11.139Z,13.08
2023-10-07T06:03:15.155Z,13.12
2023-10-07T06:06:19.098Z,13.15
2023-10-07T06:09:23.649Z,13.20
2023-10-07T06:12:29.580Z,13.25
2023-10-07T06:15:35.347Z,13.31
2023-10-07T06:18:40.742Z,13.38
2023-10-07T06:21:52.432Z,13.43
2023-10-07T06:25:02.301Z,13.50
2023-10-07T06:28:07.031Z,13.59
2023-10-07T06:31:14.264Z,13.70
2023-10-07T06:34:26.854Z,13.81
2023-10-07T06:37:31.307Z,13.92
2023-10-07T06:40:37.030Z,14.01
2023-10-07T06:43:43.876Z,14.07
2023-10-07T06:46:49.017Z,14.14
2023-10-07T06:49:57.403Z,14.24
2023-10-07T06:53:01.426Z,14.35
2023-10-07T06:56:05.635Z,14.44
2023-10-07T06:59:12.148Z,14.53
2023-10-07T07:02:20.223Z,14.61
2023-10-07T07:05:25.478Z,14.71
2023-10-07T07:08:29.449Z,14.81
2023-10-07T07:11:35.215Z,14.92
2023-10-07T07:14:43.225Z,14.99
2023-10-07T07:17:47.246Z,15.05
2023-10-07T07:20:56.279Z,15.12
2023-10-07T07:24:01.390Z,15.17
2023-10-07T07:27:05.360Z,15.21
2023-10-07T07:30:18.644Z,15.26
2023-10-07T07:33:29.954Z,15.32
2023-10-07T07:36:40.567Z,15.41
2023-10-07T07:39:49.011Z,15.49
2023-10-07T07:42:56.643Z,15.55
2023-10-07T07:46:30.566Z,15.61
2023-10-07T07:49:40.196Z,15.70
2023-10-07T07:52:44.189Z,15.80
2023-10-07T07:55:48.408Z,15.88
2023-10-07T07:58:54.217Z,15.97
2023-10-07T08:02:03.730Z,16.08
2023-10-07T08:05:09.377Z,16.21
2023-10-07T08:08:26.076Z,16.35
2023-10-07T08:11:36.422Z,16.49
2023-10-07T08:14:40.431Z,16.60
2023-10-07T08:17:46.316Z,16.69
2023-10-07T08:20:50.391Z,16.76
2023-10-07T08:23:54.335Z,16.81
2023-10-07T08:27:01.094Z,16.84
2023-10-07T08:30:08.152Z,16.87
2023-10-07T08:33:13.850Z,16.88
2023-10-07T08:36:19.052Z,16.90
2023-10-07T08:39:28.562Z,16.92
2023-10-07T08:42:33.341Z,16.94
2023-10-07T08:45:40.692Z,16.96
2023-10-07T08:48:51.038Z,16.97
2023-10-07T08:51:55.942Z,17.00
2023-10-07T08:55:01.408Z,17.03
2023-10-07T08:58:06.649Z,17.08
2023-10-07T09:01:18.527Z,17.14
2023-10-07T09:04:23.262Z,17.18
2023-10-07T09:07:32.552Z,17.24
2023-10-07T09:10:38.217Z,17.30
2023-10-07T09:13:43.795Z,17.39
2023-10-07T09:16:50.921Z,17.47
2023-10-07T09:20:00.045Z,17.52
2023-10-07T09:23:08.547Z,17.62
2023-10-07T09:26:23.511Z,17.70
2023-10-07T09:29:30.418Z,17.73
2023-10-07T09:32:34.728Z,17.75
2023-10-07T09:35:39.133Z,17.80
2023-10-07T09:38:43.941Z,17.88
2023-10-07T09:42:04.777Z,17.95
2023-10-07T09:45:18.820Z,18.04
2023-10-07T09:48:31.192Z,18.15
2023-10-07T09:51:42.888Z,18.26
2023-10-07T09:55:20.360Z,18.37
2023-10-07T09:58:38.052Z,18.49
2023-10-07T10:01:55.470Z,18.65
2023-10-07T10:05:13.596Z,18.81
2023-10-07T10:08:29.126Z,18.92
2023-10-07T10:11:45.389Z,18.92
2023-10-07T10:15:19.174Z,18.91
2023-10-07T10:18:40.340Z,18.95
2023-10-07T10:21:45.177Z,19.05
2023-10-07T10:24:49.079Z,19.16
2023-10-07T10:28:00.001Z,19.26
2023-10-07T10:31:08.433Z,19.39
2023-10-07T10:34:16.167Z,19.49
2023-10-07T10:37:21.751Z,19.58
2023-10-07T10:40:32.727Z,19.68
2023-10-07T10:43:36.687Z,19.78
2023-10-07T10:46:47.472Z,19.89
2023-10-07T10:49:56.346Z,20.02
2023-10-07T10:53:01.619Z,20.14
2023-10-07T10:56:07.073Z,20.25
2023-10-07T10:59:11.133Z,20.38
2023-10-07T11:02:18.925Z,20.49
2023-10-07T11:05:23.752Z,20.59
2023-10-07T11:08:28.210Z,20.71
2023-10-07T11:11:32.499Z,20.81
2023-10-07T11:14:37.042Z,20.91
2023-10-07T11:17:54.153Z,20.96
2023-10-07T11:20:58.134Z,21.02
2023-10-07T11:24:02.500Z,21.06
2023-10-07T11:27:10.033Z,21.09
2023-10-07T11:30:16.317Z,21.07
2023-10-07T11:33:21.291Z,21.09
2023-10-07T11:36:25.806Z,21.08
2023-10-07T11:39:31.166Z,21.07
2023-10-07T11:42:35.407Z,21.08
2023-10-07T11:45:41.367Z,21.19
2023-10-07T11:48:46.150Z,21.28
2023-10-07T11:51:50.256Z,21.36
2023-10-07T11:54:54.272Z,21.46
2023-10-07T11:57:59.983Z,21.55
2023-10-07T12:01:05.013Z,21.61
2023-10-07T12:04:10.009Z,21.71
2023-10-07T12:07:15.691Z,21.83
2023-10-07T12:10:21.145Z,21.89
2023-10-07T12:13:25.093Z,21.95
2023-10-07T12:16:30.452Z,22.02
2023-10-07T12:19:35.659Z,22.07
2023-10-07T12:22:40.269Z,22.10
2023-10-07T12:25:44.209Z,22.13
2023-10-07T12:28:50.381Z,22.15
2023-10-07T12:31:54.544Z,22.18
2023-10-07T12:34:59.881Z,22.22
2023-10-07T12:38:03.952Z,22.29
2023-10-07T12:41:08.933Z,22.34
2023-10-07T12:44:13.310Z,22.33
2023-10-07T12:47:18.237Z,22.32
2023-10-07T12:50:25.414Z,22.31
2023-10-07T12:53:29.816Z,22.30
2023-10-07T12:56:34.966Z,22.29
2023-10-07T12:59:39.246Z,22.27
2023-10-07T13:02:45.492Z,22.28
2023-10-07T13:05:49.659Z,22.31
2023-10-07T13:08:55.089Z,22.26
2023-10-07T13:11:59.913Z,22.27
2023-10-07T13:15:04.496Z,22.32
2023-10-07T13:18:10.481Z,22.35
2023-10-07T13:21:17.796Z,22.34
2023-10-07T13:24:21.801Z,22.29
2023-10-07T13:27:25.710Z,22.27
2023-10-07T13:30:31.528Z,22.24
2023-10-07T13:33:37.274Z,22.15
2023-10-07T13:36:43.666Z,22.06
2023-10-07T13:39:47.660Z,22.00
2023-10-07T13:42:52.691Z,21.94
2023-10-07T13:45:56.636Z,21.88
2023-10-07T13:49:01.430Z,21.78
2023-10-07T13:52:07.104Z,21.64
2023-10-07T13:55:23.326Z,21.55
2023-10-07T13:58:27.254Z,21.45
2023-10-07T14:01:31.310Z,21.34
2023-10-07T14:04:36.024Z,21.24
2023-10-07T14:07:40.888Z,21.15
2023-10-07T14:10:46.606Z,21.07
2023-10-07T14:13:50.603Z,21.01
2023-10-07T14:17:00.189Z,20.92
2023-10-07T14:20:07.502Z,20.84
2023-10-07T14:23:15.594Z,20.78
2023-10-07T14:26:20.921Z,20.74
2023-10-07T14:29:27.876Z,20.71
2023-10-07T14:32:32.396Z,20.66
2023-10-07T14:35:39.212Z,20.62
2023-10-07T14:38:43.657Z,20.59
2023-10-07T14:41:47.563Z,20.56
2023-10-07T14:44:52.596Z,20.50
2023-10-07T14:47:56.652Z,20.42
2023-10-07T14:51:05.450Z,20.32
2023-10-07T14:54:09.607Z,20.22
2023-10-07T14:57:18.936Z,20.17
2023-10-07T15:00:23.299Z,20.12
2023-10-07T15:03:29.066Z,20.07
2023-10-07T15:06:34.897Z,20.00
2023-10-07T15:09:38.829Z,19.89
2023-10-07T15:12:43.578Z,19.76
2023-10-07T15:15:48.412Z,19.64
2023-10-07T15:18:53.956Z,19.56
2023-10-07T15:21:58.515Z,19.49
2023-10-07T15:25:02.449Z,19.40
2023-10-07T15:28:07.454Z,19.33
2023-10-07T15:31:12.364Z,19.30
2023-10-07T15:34:16.351Z,19.26
2023-10-07T15:37:20.333Z,19.20
2023-10-07T15:40:24.403Z,19.14
2023-10-07T15:43:28.362Z,19.08
2023-10-07T15:46:32.989Z,19.01
2023-10-07T15:49:37.409Z,18.94
2023-10-07T15:52:41.390Z,18.88
2023-10-07T15:55:45.421Z,18.83
2023-10-07T15:58:49.845Z,18.76
2023-10-07T16:01:53.986Z,18.71
2023-10-07T16:04:58.261Z,18.64
2023-10-07T16:08:02.402Z,18.59
2023-10-07T16:11:07.645Z,18.55
2023-10-07T16:14:11.841Z,18.50
2023-10-07T16:17:15.886Z,18.46
2023-10-07T16:20:20.553Z,18.41
2023-10-07T16:23:24.838Z,18.37
2023-10-07T16:26:28.957Z,18.31
2023-10-07T16:29:32.913Z,18.26
2023-10-07T16:32:38.538Z,18.25
2023-10-07T16:35:42.584Z,18.21
2023-10-07T16:38:46.652Z,18.19
2023-10-07T16:41:54.534Z,18.18
2023-10-07T16:44:58.958Z,18.17
2023-10-07T16:48:04.840Z,18.15
2023-10-07T16:51:11.417Z,18.15
2023-10-07T16:54:15.500Z,18.14
2023-10-07T16:57:19.459Z,18.15
2023-10-07T17:00:23.837Z,18.13
2023-10-07T17:03:28.398Z,18.12
2023-10-07T17:06:32.491Z,18.13
2023-10-07T17:09:36.466Z,18.13
2023-10-07T17:12:40.399Z,18.12
2023-10-07T17:15:45.027Z,18.11
2023-10-07T17:18:51.506Z,18.13
2023-10-07T17:21:56.250Z,18.17
2023-10-07T17:25:00.361Z,18.21
2023-10-07T17:28:05.005Z,18.23
2023-10-07T17:31:12.194Z,18.25
2023-10-07T17:34:16.304Z,18.26
2023-10-07T17:37:20.229Z,18.24
2023-10-07T17:40:24.352Z,18.24
2023-10-07T17:43:28.530Z,18.25
2023-10-07T17:46:32.432Z,18.30
2023-10-07T17:49:36.360Z,18.37
2023-10-07T17:52:40.777Z,18.43
2023-10-07T17:55:46.660Z,18.47
2023-10-07T17:58:51.279Z,18.49
2023-10-07T18:01:55.244Z,18.48
2023-10-07T18:05:00.158Z,18.42
2023-10-07T18:08:04.841Z,18.32
2023-10-07T18:11:08.869Z,18.21
2023-10-07T18:14:13.336Z,18.10
2023-10-07T18:17:17.367Z,18.00
2023-10-07T18:20:21.914Z,17.90
2023-10-07T18:23:27.091Z,17.80
2023-10-07T18:26:31.184Z,17.69
2023-10-07T18:29:35.262Z,17.59
2023-10-07T18:32:39.990Z,17.50
2023-10-07T18:35:44.188Z,17.37
2023-10-07T18:38:48.181Z,17.23
2023-10-07T18:41:52.784Z,17.10
2023-10-07T18:44:56.738Z,16.99
2023-10-07T18:48:00.793Z,16.90
2023-10-07T18:51:08.280Z,16.85
2023-10-07T18:54:12.422Z,16.82
2023-10-07T18:57:16.479Z,16.77
2023-10-07T19:00:20.930Z,16.73
2023-10-07T19:03:24.974Z,16.69
2023-10-07T19:06:29.946Z,16.59
2023-10-07T19:09:34.984Z,16.55
2023-10-07T19:12:39.363Z,16.51
2023-10-07T19:15:46.817Z,16.47
2023-10-07T19:18:51.516Z,16.43
2023-10-07T19:21:57.860Z,16.39
2023-10-07T19:25:01.783Z,16.34
2023-10-07T19:28:06.819Z,16.32
2023-10-07T19:31:14.054Z,16.28
2023-10-07T19:34:18.379Z,16.26
2023-10-07T19:37:22.249Z,16.23
2023-10-07T19:40:26.220Z,16.19
2023-10-07T19:43:30.110Z,16.16
2023-10-07T19:46:34.005Z,16.13
2023-10-07T19:49:38.736Z,16.11
2023-10-07T19:52:42.802Z,16.08
2023-10-07T19:55:46.723Z,16.08
2023-10-07T19:58:51.019Z,16.10
2023-10-07T20:01:56.233Z,16.09
2023-10-07T20:05:00.308Z,16.06
2023-10-07T20:08:04.905Z,16.01
2023-10-07T20:11:10.564Z,16.01
2023-10-07T20:14:16.341Z,16.02
2023-10-07T20:17:20.500Z,16.00
2023-10-07T20:20:24.757Z,15.98
2023-10-07T20:23:29.734Z,15.96
2023-10-07T20:26:33.733Z,15.97
2023-10-07T20:29:37.835Z,15.97
2023-10-07T20:32:42.007Z,15.97
2023-10-07T20:35:46.075Z,15.98
2023-10-07T20:38:52.575Z,15.98
2023-10-07T20:41:56.617Z,15.98
2023-10-07T20:45:01.104Z,15.99
2023-10-07T20:48:06.181Z,15.93
2023-10-07T20:51:11.815Z,15.89
2023-10-07T20:54:16.168Z,15.87
2023-10-07T20:57:20.243Z,15.85
2023-10-07T21:00:24.621Z,15.83
2023-10-07T21:03:28.988Z,15.80
2023-10-07T21:06:33.276Z,15.77
2023-10-07T21:09:37.307Z,15.75
2023-10-07T21:12:41.181Z,15.72
2023-10-07T21:15:45.208Z,15.70
2023-10-07T21:18:49.155Z,15.65
2023-10-07T21:21:53.270Z,15.63
2023-10-07T21:24:57.981Z,15.62
2023-10-07T21:28:01.929Z,15.64
2023-10-07T21:31:06.380Z,15.65
2023-10-07T21:34:11.390Z,15.67
2023-10-07T21:37:15.520Z,15.70
2023-10-07T21:40:19.494Z,15.72
2023-10-07T21:43:23.468Z,15.74
2023-10-07T21:46:27.479Z,15.74
2023-10-07T21:49:31.461Z,15.73
2023-10-07T21:52:35.440Z,15.74
2023-10-07T21:55:39.538Z,15.76
2023-10-07T21:58:43.986Z,15.76
2023-10-07T22:01:47.976Z,15.80
2023-10-07T22:04:52.043Z,15.85
2023-10-07T22:07:57.614Z,15.90
2023-10-07T22:11:01.868Z,15.95
2023-10-07T22:14:06.546Z,15.98
2023-10-07T22:17:10.618Z,16.00
2023-10-07T22:20:15.970Z,15.99
2023-10-07T22:23:22.435Z,16.00
2023-10-07T22:26:26.732Z,16.03
2023-10-07T22:29:33.112Z,16.05
2023-10-07T22:32:38.214Z,16.06
2023-10-07T22:35:42.721Z,16.10
2023-10-07T22:38:54.773Z,16.13
2023-10-07T22:42:01.590Z,16.14
2023-10-07T22:45:12.344Z,16.13
2023-10-07T22:48:28.857Z,16.15
2023-10-07T22:51:33.579Z,16.17
2023-10-07T22:54:44.577Z,16.18
2023-10-07T22:57:48.445Z,16.23
2023-10-07T23:00:52.483Z,16.28
2023-10-07T23:04:10.921Z,16.31
2023-10-07T23:07:24.437Z,16.33
2023-10-07T23:10:36.572Z,16.35
2023-10-07T23:13:40.458Z,16.37
2023-10-07T23:16:47.774Z,16.40
2023-10-07T23:19:52.085Z,16.42
2023-10-07T23:22:57.835Z,16.44
2023-10-07T23:26:02.007Z,16.43
2023-10-07T23:29:07.539Z,16.42
2023-10-07T23:32:16.406Z,16.39
2023-10-07T23:35:24.656Z,16.38
2023-10-07T23:38:28.769Z,16.33
2023-10-07T23:41:32.895Z,16.33
2023-10-07T23:44:37.685Z,16.32
2023-10-07T23:47:42.401Z,16.32
2023-10-07T23:50:48.708Z,16.32
2023-10-07T23:53:53.358Z,16.31
2023-10-07T23:57:01.897Z,16.32
